VVPQ

Details ICAO VVPQ
Name PHU QUOC
Region Vietnam
Timezone Asia/Ho_Chi_Minh (UTC+7.0)
Plans Departing 17
Arriving 34
Stats Elevation 23 ft / 7 m (AMSL)
Location 10.227026° 103.967171°
Runways 1
Magnetic Variation 0.370° W
Sunrise 2018-05-26 22:42:58 UTC / 2018-05-27 05:42:58 Local
Sunset 2018-05-27 11:22:25 UTC / 2018-05-27 18:22:25 Local
Advertisement - Login to hide

Runways

ID Width Length Bearing (true) Bearing (mag) Surface Threshold Offset Overrun Length
08 95 ft / 29 m 6,897 ft / 2,102 m 79.09° 79.46° Asphalt 0 ft / 0 m 0 ft / 0 m
26 95 ft / 29 m 6,897 ft / 2,102 m 259.10° 259.47° Asphalt 0 ft / 0 m 0 ft / 0 m

Map

Weather


0- 5 10 15 20 25 30 35+ Temperature / ° C

Clouds and Precipitation
Forecast for 2018-05-27 00:00 UTC. Updated 4 hours ago

Ground ~20,000 ft ~40,000 ft Winds

METAR

VVPQ 270330Z 10010KT 060V120 CAVOK 32/23 Q1010 NOSIG

TAF

TAF VVPQ 262300Z 2700/2724 11006KT 9999 SCT015 TEMPO 2700/2706 5000 SHRA SCT015 FEW017CB TEMPO 2718/2724 3000 TSRA BKN013 SCT015CB

Frequencies

Tower 118.10 MHz TWR
Tower 118.60 MHz TWR
Warning: Do not use this data for real-world aviation or navigation. No guarantee of current accuracy is given.